createdAt,value
2022-09-30T00:00:29.779Z,96019.66
2022-09-30T00:06:09.297Z,96028.03
2022-09-30T00:11:33.949Z,96029.94
2022-09-30T00:16:54.805Z,96031.09
2022-09-30T00:22:16.114Z,96035.09
2022-09-30T00:27:38.737Z,96035.03
2022-09-30T00:32:59.749Z,96023.00
2022-09-30T00:38:20.624Z,96029.59
2022-09-30T00:43:45.602Z,96026.41
2022-09-30T00:49:14.972Z,96038.38
2022-09-30T00:54:36.234Z,96026.00
2022-09-30T00:59:57.507Z,96027.09
2022-09-30T01:05:18.333Z,96030.81
2022-09-30T01:10:39.084Z,96032.47
2022-09-30T01:16:06.913Z,96034.97
2022-09-30T01:21:44.349Z,96041.47
2022-09-30T01:27:30.583Z,96036.31
2022-09-30T01:33:10.530Z,96045.41
2022-09-30T01:38:48.629Z,96041.19
2022-09-30T01:44:11.345Z,96056.91
2022-09-30T01:49:49.455Z,96057.94
2022-09-30T01:55:28.404Z,96067.69
2022-09-30T02:00:53.705Z,96068.50
2022-09-30T02:06:20.860Z,96082.91
2022-09-30T02:11:42.539Z,96081.06
2022-09-30T02:17:24.046Z,96087.06
2022-09-30T02:23:00.742Z,96078.75
2022-09-30T02:28:27.525Z,96085.94
2022-09-30T02:33:55.147Z,96087.53
2022-09-30T02:39:26.723Z,96094.03
2022-09-30T02:44:52.299Z,96087.44
2022-09-30T02:50:39.339Z,96089.59
2022-09-30T02:56:14.704Z,96106.09
2022-09-30T03:01:35.676Z,96111.69
2022-09-30T03:06:56.580Z,96106.47
2022-09-30T03:12:24.234Z,96110.56
2022-09-30T03:18:10.696Z,96117.63
2022-09-30T03:23:40.484Z,96117.78
2022-09-30T03:29:23.134Z,96112.44
2022-09-30T03:34:47.146Z,96129.16
2022-09-30T03:40:30.598Z,96115.97
2022-09-30T03:46:01.639Z,96121.63
2022-09-30T03:51:25.111Z,96125.22
2022-09-30T03:56:45.876Z,96126.84
2022-09-30T04:02:10.603Z,96129.44
2022-09-30T04:07:31.370Z,96125.97
2022-09-30T04:12:54.855Z,96132.22
2022-09-30T04:18:15.517Z,96133.19
2022-09-30T04:23:37.518Z,96132.09
2022-09-30T04:28:58.877Z,96131.19
2022-09-30T04:34:19.530Z,96141.97
2022-09-30T04:39:40.947Z,96143.56
2022-09-30T04:45:02.722Z,96148.31
2022-09-30T04:50:24.029Z,96159.25
2022-09-30T04:55:45.683Z,96157.78
2022-09-30T05:01:08.776Z,96163.34
2022-09-30T05:06:29.461Z,96169.06
2022-09-30T05:11:50.157Z,96183.22
2022-09-30T05:17:10.944Z,96186.59
2022-09-30T05:22:31.560Z,96178.56
2022-09-30T05:27:52.222Z,96183.03
2022-09-30T05:33:14.270Z,96188.66
2022-09-30T05:38:35.597Z,96197.88
2022-09-30T05:44:01.167Z,96206.34
2022-09-30T05:49:22.293Z,96211.94
2022-09-30T05:54:44.509Z,96211.72
2022-09-30T06:00:06.642Z,96213.72
2022-09-30T06:05:31.979Z,96222.66
2022-09-30T06:10:52.928Z,96232.69
2022-09-30T06:16:14.071Z,96238.63
2022-09-30T06:21:35.052Z,96246.13
2022-09-30T06:26:55.923Z,96256.00
2022-09-30T06:32:17.619Z,96260.91
2022-09-30T06:37:38.839Z,96266.84
2022-09-30T06:43:00.567Z,96276.16
2022-09-30T06:48:35.074Z,96273.41
2022-09-30T06:54:00.185Z,96284.72
2022-09-30T06:59:21.436Z,96284.69
2022-09-30T07:04:42.802Z,96275.47
2022-09-30T07:10:04.667Z,96283.56
2022-09-30T07:15:25.664Z,96278.97
2022-09-30T07:20:54.195Z,96286.97
2022-09-30T07:26:20.807Z,96294.44
2022-09-30T07:31:41.396Z,96301.66
2022-09-30T07:37:04.275Z,96301.34
2022-09-30T07:42:26.798Z,96310.78
2022-09-30T07:47:53.267Z,96298.91
2022-09-30T07:53:14.738Z,96294.25
2022-09-30T07:58:36.167Z,96311.22
2022-09-30T08:04:02.134Z,96314.97
2022-09-30T08:09:25.095Z,96325.97
2022-09-30T08:14:46.196Z,96337.06
2022-09-30T08:20:12.981Z,96337.69
2022-09-30T08:25:34.926Z,96335.88
2022-09-30T08:30:55.646Z,96344.66
2022-09-30T08:36:19.078Z,96336.47
2022-09-30T08:42:25.168Z,96354.66
2022-09-30T08:48:13.856Z,96360.53
2022-09-30T08:53:46.943Z,96372.72
2022-09-30T08:59:21.295Z,96384.09
2022-09-30T09:04:42.663Z,96388.72
2022-09-30T09:10:20.906Z,96395.00
2022-09-30T09:16:08.085Z,96403.69
2022-09-30T09:21:54.645Z,96410.25
2022-09-30T09:27:38.614Z,96396.75
2022-09-30T09:33:16.114Z,96398.72
2022-09-30T09:38:46.201Z,96405.44
2022-09-30T09:44:26.934Z,96394.31
2022-09-30T09:49:57.679Z,96393.16
2022-09-30T09:55:22.365Z,96401.00
2022-09-30T10:00:46.600Z,96411.16
2022-09-30T10:06:10.316Z,96412.63
2022-09-30T10:11:31.293Z,96421.44
2022-09-30T10:17:00.147Z,96430.44
2022-09-30T10:22:28.303Z,96425.88
2022-09-30T10:27:53.256Z,96426.19
2022-09-30T10:33:20.633Z,96427.72
2022-09-30T10:39:07.350Z,96421.41
2022-09-30T10:44:29.773Z,96437.69
2022-09-30T10:50:15.457Z,96441.22
2022-09-30T10:55:43.238Z,96434.34
2022-09-30T11:01:32.859Z,96433.44
2022-09-30T11:07:04.303Z,96424.78
2022-09-30T11:12:47.485Z,96429.63
2022-09-30T11:18:21.217Z,96423.47
2022-09-30T11:23:52.256Z,96430.69
2022-09-30T11:29:35.826Z,96437.31
2022-09-30T11:35:11.958Z,96442.22
2022-09-30T11:41:07.405Z,96436.19
2022-09-30T11:46:46.895Z,96428.34
2022-09-30T11:52:18.486Z,96429.34
2022-09-30T11:58:08.422Z,96428.75
2022-09-30T12:03:50.746Z,96418.31
2022-09-30T12:09:32.515Z,96421.16
2022-09-30T12:15:07.598Z,96422.63
2022-09-30T12:20:35.181Z,96416.44
2022-09-30T12:26:00.170Z,96414.72
2022-09-30T12:31:30.722Z,96418.66
2022-09-30T12:37:11.260Z,96419.09
2022-09-30T12:43:03.367Z,96415.28
2022-09-30T12:48:34.404Z,96415.25
2022-09-30T12:54:32.054Z,96421.63
2022-09-30T12:59:57.319Z,96430.66
2022-09-30T13:05:27.097Z,96420.72
2022-09-30T13:10:57.750Z,96419.38
2022-09-30T13:16:57.055Z,96414.94
2022-09-30T13:22:21.087Z,96426.13
2022-09-30T13:27:43.361Z,96437.66
2022-09-30T13:33:04.551Z,96441.88
2022-09-30T13:38:40.221Z,96439.75
2022-09-30T13:44:14.974Z,96447.44
2022-09-30T13:49:45.889Z,96428.34
2022-09-30T13:55:17.737Z,96438.91
2022-09-30T14:00:46.693Z,96423.88
2022-09-30T14:06:26.892Z,96412.28
2022-09-30T14:12:07.418Z,96420.00
2022-09-30T14:17:43.047Z,96424.56
2022-09-30T14:23:05.239Z,96437.47
2022-09-30T14:28:38.255Z,96423.78
2022-09-30T14:33:59.532Z,96426.59
2022-09-30T14:39:26.287Z,96430.50
2022-09-30T14:44:47.346Z,96425.50
2022-09-30T14:50:17.674Z,96422.25
2022-09-30T14:55:38.690Z,96425.84
2022-09-30T15:00:59.752Z,96438.03
2022-09-30T15:06:34.032Z,96440.38
2022-09-30T15:11:55.763Z,96458.13
2022-09-30T15:17:21.457Z,96452.22
2022-09-30T15:22:42.524Z,96446.22
2022-09-30T15:28:04.124Z,96455.38
2022-09-30T15:33:29.035Z,96461.50
2022-09-30T15:38:52.079Z,96478.03
2022-09-30T15:44:37.278Z,96480.78
2022-09-30T15:49:58.126Z,96474.94
2022-09-30T15:55:41.809Z,96474.00
2022-09-30T16:01:24.919Z,96479.59
2022-09-30T16:07:08.572Z,96486.66
2022-09-30T16:12:34.953Z,96491.97
2022-09-30T16:17:57.902Z,96502.94
2022-09-30T16:23:38.863Z,96521.28
2022-09-30T16:29:08.252Z,96517.88
2022-09-30T16:34:36.918Z,96515.56
2022-09-30T16:40:10.464Z,96517.38
2022-09-30T16:45:32.468Z,96523.09
2022-09-30T16:51:02.153Z,96519.97
2022-09-30T16:56:26.681Z,96523.41
2022-09-30T17:01:48.966Z,96515.41
2022-09-30T17:07:14.419Z,96533.53
2022-09-30T17:12:35.161Z,96539.41
2022-09-30T17:17:56.508Z,96550.53
2022-09-30T17:23:17.106Z,96553.47
2022-09-30T17:28:37.811Z,96557.97
2022-09-30T17:33:58.608Z,96566.00
2022-09-30T17:39:19.247Z,96569.06
2022-09-30T17:44:39.913Z,96565.44
2022-09-30T17:50:02.767Z,96567.38
2022-09-30T17:55:23.679Z,96566.19
2022-09-30T18:00:46.866Z,96574.59
2022-09-30T18:06:07.869Z,96578.75
2022-09-30T18:11:31.039Z,96575.16
2022-09-30T18:16:52.782Z,96574.94
2022-09-30T18:22:13.711Z,96575.53
2022-09-30T18:27:34.412Z,96570.34
2022-09-30T18:32:56.323Z,96570.44
2022-09-30T18:38:16.995Z,96552.84
2022-09-30T18:43:37.811Z,96550.69
2022-09-30T18:48:58.978Z,96561.34
2022-09-30T18:54:20.267Z,96570.47
2022-09-30T18:59:41.241Z,96568.38
2022-09-30T19:05:01.986Z,96564.59
2022-09-30T19:10:24.506Z,96555.16
2022-09-30T19:15:46.229Z,96551.78
2022-09-30T19:21:11.286Z,96538.38
2022-09-30T19:26:34.826Z,96539.19
2022-09-30T19:32:00.190Z,96534.63
2022-09-30T19:37:27.383Z,96535.59
2022-09-30T19:42:49.894Z,96552.53
2022-09-30T19:48:11.081Z,96545.59
2022-09-30T19:53:40.965Z,96538.00
2022-09-30T19:59:03.271Z,96536.00
2022-09-30T20:04:25.795Z,96541.38
2022-09-30T20:09:49.281Z,96537.38
2022-09-30T20:15:46.320Z,96548.00
2022-09-30T20:21:18.210Z,96538.38
2022-09-30T20:26:40.873Z,96540.75
2022-09-30T20:32:02.312Z,96533.34
2022-09-30T20:37:23.035Z,96536.06
2022-09-30T20:42:44.227Z,96529.00
2022-09-30T20:48:05.208Z,96526.47
2022-09-30T20:53:25.802Z,96523.47
2022-09-30T20:58:46.786Z,96521.25
2022-09-30T21:04:07.488Z,96515.41
2022-09-30T21:09:29.484Z,96517.78
2022-09-30T21:14:50.038Z,96522.59
2022-09-30T21:20:10.860Z,96537.91
2022-09-30T21:25:32.466Z,96529.91
2022-09-30T21:30:53.691Z,96544.69
2022-09-30T21:36:14.628Z,96547.75
2022-09-30T21:41:35.869Z,96540.84
2022-09-30T21:47:05.272Z,96546.94
2022-09-30T21:52:28.590Z,96555.94
2022-09-30T21:57:53.112Z,96556.16
2022-09-30T22:03:16.784Z,96566.59
2022-09-30T22:08:41.797Z,96554.78
2022-09-30T22:14:02.878Z,96552.50
2022-09-30T22:19:23.734Z,96551.53
2022-09-30T22:24:44.432Z,96554.59
2022-09-30T22:30:07.189Z,96565.81
2022-09-30T22:35:46.316Z,96561.53
2022-09-30T22:41:06.933Z,96561.31
2022-09-30T22:46:29.341Z,96557.50
2022-09-30T22:51:54.461Z,96550.25
2022-09-30T22:57:15.991Z,96567.97
2022-09-30T23:02:37.013Z,96577.88
2022-09-30T23:07:57.597Z,96575.00
2022-09-30T23:13:22.085Z,96578.56
2022-09-30T23:18:46.398Z,96589.59
2022-09-30T23:24:07.395Z,96590.19
2022-09-30T23:29:28.054Z,96600.59
2022-09-30T23:34:48.699Z,96597.59
2022-09-30T23:40:10.062Z,96598.69
2022-09-30T23:45:31.315Z,96596.91
2022-09-30T23:50:52.191Z,96599.34
2022-09-30T23:56:16.356Z,96603.84
